Hébergeur de fichiers indépendant

StPardoux2019 45.gpx

À propos

Type de fichier
Fichier GPX de 115 Ko (application/xml)
Confidentialité
Fichier public, envoyé le 13 février 2019 à 14:48, depuis l'adresse IP 193.253.x.x (France)
Sécurité
Ne contient aucun Virus ou Malware connus - Dernière vérification: 3 jours
Statistiques
La présente page de téléchargement a été vue 90 fois depuis l'envoi du fichier
Page de téléchargement

Aperçu du fichier


<?xml version="1.0" encoding="UTF-8"?>
<gpx xmlns="http://www.topografix.com/GPX/1/1" xmlns:gpsies="https://www.gpsies.com/GPX/1/0" creator="GPSies https://www.gpsies.com - St Pardoux 2019 45" version="1.1" xmlns:xsi="http://www.w3.org/2001/XMLSchema-instance" xsi:schemaLocation="http://www.topografix.com/GPX/1/1 http://www.topografix.com/GPX/1/1/gpx.xsd https://www.gpsies.com/GPX/1/0 https://www.gpsies.com/gpsies.xsd">
  <metadata>
    <name>St Pardoux 2019 45</name>
    <link href="https://www.gpsies.com/">
      <text>St Pardoux 2019 45 on GPSies.com</text>
    </link>
    <time>2019-01-18T09:40:08Z</time>
  </metadata>
  <trk>
    <name>St Pardoux 2019 45 on GPSies.com</name>
    <trkseg>
      <trkpt lat="46.05814000" lon="1.282130000">
        <ele>370.00000</ele>
        <time>2019-01-18T09:34:03Z</time>
      </trkpt>
      <trkpt lat="46.05763000" lon="1.282670000">
        <ele>370.00000</ele>
        <time>2019-01-18T09:35:03Z</time>
      </trkpt>
      <trkpt lat="46.05729000" lon="1.282980000">
        <ele>373.00000</ele>
        <time>2019-01-18T09:36:03Z</time>
      </trkpt>
      <trkpt lat="46.05690000" lon="1.283030000">
        <ele>375.00000</ele>
        <time>2019-01-18T09:37:03Z</time>
      </trkpt>
      <trkpt lat="46.05658000" lon="1.283230000">
        <ele>377.00000</ele>
        <time>2019-01-18T09:38:03Z</time>
      </trkpt>
      <trkpt lat="46.05653000" lon="1.283610000">
        <ele>379.00000</ele>
        <time>2019-01-18T09:39:03Z</time>
      </trkpt>
      <trkpt lat="46.05651000" lon="1.283970000">
        <ele>381.00000</ele>
        <time>2019-01-18T09:40:03Z</time>
      </trkpt>
      <trkpt lat="46.05650000" lon="1.284580000">
        <ele>382.00000</ele>
        <time>2019-01-18T09:41:03Z</time>
      </trkpt>
      <trkpt lat="46.05648000" lon="1.284900000">
        <ele>382.00000</ele>
        <time>2019-01-18T09:42:03Z</time>
      </trkpt>
      <trkpt lat="46.05638000" lon="1.285380000">
        <ele>381.00000</ele>
        <time>2019-01-18T09:43:03Z</time>
      </trkpt>
      <trkpt lat="46.05627000" lon="1.285620000">
        <ele>381.00000</ele>
        <time>2019-01-18T09:44:03Z</time>
      </trkpt>
      <trkpt lat="46.05619000" lon="1.285900000">
        <ele>381.00000</ele>
        <time>2019-01-18T09:45:03Z</time>
      </trkpt>
      <trkpt lat="46.05619000" lon="1.286450000">
        <ele>381.00000</ele>
        <time>2019-01-18T09:46:03Z</time>
      </trkpt>
      <trkpt lat="46.05615000" lon="1.286900000">
        <ele>381.00000</ele>
        <time>2019-01-18T09:47:03Z</time>
      </trkpt>
      <trkpt lat="46.05623000" lon="1.287260000">
        <ele>381.00000</ele>
        <time>2019-01-18T09:48:03Z</time>
      </trkpt>
      <trkpt lat="46.05633000" lon="1.287600000">
        <ele>381.00000</ele>
        <time>2019-01-18T09:49:03Z</time>
      </trkpt>
      <trkpt lat="46.05629000" lon="1.288070000">
        <ele>381.00000</ele>
        <time>2019-01-18T09:50:03Z</time>
      </trkpt>
      <trkpt lat="46.05621000" lon="1.288600000">
        <ele>382.00000</ele>
        <time>2019-01-18T09:51:03Z</time>
      </trkpt>
      <trkpt lat="46.05618000" lon="1.289120000">
        <ele>381.00000</ele>
        <time>2019-01-18T09:52:03Z</time>
      </trkpt>
      <trkpt lat="46.05625000" lon="1.289530000">
        <ele>380.00000</ele>
        <time>2019-01-18T09:53:03Z</time>
      </trkpt>
      <trkpt lat="46.05620000" lon="1.290150000">
        <ele>380.00000</ele>
        <time>2019-01-18T09:54:03Z</time>
      </trkpt>
      <trkpt lat="46.05599000" lon="1.290650000">
        <ele>384.00000</ele>
        <time>2019-01-18T09:55:03Z</time>
      </trkpt>
      <trkpt lat="46.05592000" lon="1.291660000">
        <ele>385.00000</ele>
        <time>2019-01-18T09:56:03Z</time>
      </trkpt>
      <trkpt lat="46.05592000" lon="1.295770000">
        <ele>396.00000</ele>
        <time>2019-01-18T09:57:03Z</time>
      </trkpt>
      <trkpt lat="46.05621000" lon="1.296090000">
        <ele>395.00000</ele>
        <time>2019-01-18T09:58:03Z</time>
      </trkpt>
      <trkpt lat="46.05632000" lon="1.296790000">
        <ele>399.00000</ele>
        <time>2019-01-18T09:59:03Z</time>
      </trkpt>
      <trkpt lat="46.05632000" lon="1.297580000">
        <ele>402.00000</ele>
        <time>2019-01-18T10:00:03Z</time>
      </trkpt>
      <trkpt lat="46.05640000" lon="1.298090000">
        <ele>403.00000</ele>
        <time>2019-01-18T10:01:03Z</time>
      </trkpt>
      <trkpt lat="46.05644000" lon="1.298580000">
        <ele>403.00000</ele>
        <time>2019-01-18T10:02:03Z</time>
      </trkpt>
      <trkpt lat="46.05665000" lon="1.299360000">
        <ele>405.00000</ele>
        <time>2019-01-18T10:03:03Z</time>
      </trkpt>
      <trkpt lat="46.05682000" lon="1.299730000">
        <ele>405.00000</ele>
        <time>2019-01-18T10:04:03Z</time>
      </trkpt>
      <trkpt lat="46.05718000" lon="1.300270000">
        <ele>405.00000</ele>
        <time>2019-01-18T10:05:03Z</time>
      </trkpt>
      <trkpt lat="46.05750000" lon="1.300410000">
        <ele>406.00000</ele>
        <time>2019-01-18T10:06:03Z</time>
      </trkpt>
      <trkpt lat="46.05823000" lon="1.299910000">
        <ele>407.00000</ele>
        <time>2019-01-18T10:07:03Z</time>
      </trkpt>
      <trkpt lat="46.05933000" lon="1.299270000">
        <ele>400.00000</ele>
        <time>2019-01-18T10:08:03Z</time>
      </trkpt>
      <trkpt lat="46.05963000" lon="1.299530000">
        <ele>401.00000</ele>
        <time>2019-01-18T10:09:03Z</time>
      </trkpt>
      <trkpt lat="46.05991000" lon="1.299790000">
        <ele>402.00000</ele>
        <time>2019-01-18T10:10:03Z</time>
      </trkpt>
      <trkpt lat="46.06026000" lon="1.299590000">
        <ele>399.00000</ele>
        <time>2019-01-18T10:11:03Z</time>
      </trkpt>
      <trkpt lat="46.06159000" lon="1.299580000">
        <ele>395.00000</ele>
        <time>2019-01-18T10:12:03Z</time>
      </trkpt>
      <trkpt lat="46.06241000" lon="1.299480000">
        <ele>392.00000</ele>
        <time>2019-01-18T10:13:03Z</time>
      </trkpt>
      <trkpt lat="46.06307000" lon="1.299060000">
        <ele>393.00000</ele>
        <time>2019-01-18T10:14:03Z</time>
      </trkpt>
      <trkpt lat="46.06324000" lon="1.299120000">
        <ele>394.00000</ele>
        <time>2019-01-18T10:15:03Z</time>
      </trkpt>
      <trkpt lat="46.06358000" lon="1.299290000">
        <ele>392.00000</ele>
        <time>2019-01-18T10:16:03Z</time>
      </trkpt>
      <trkpt lat="46.06387000" lon="1.299700000">
        <ele>390.00000</ele>
        <time>2019-01-18T10:17:03Z</time>
      </trkpt>
      <trkpt lat="46.06412000" lon="1.300340000">
        <ele>390.00000</ele>
        <time>2019-01-18T10:18:03Z</time>
      </trkpt>
      <trkpt lat="46.06428000" lon="1.300960000">
        <ele>392.00000</ele>
        <time>2019-01-18T10:19:03Z</time>
      </trkpt>
      <trkpt lat="46.06436000" lon="1.301570000">
        <ele>395.00000</ele>
        <time>2019-01-18T10:20:03Z</time>
      </trkpt>
      <trkpt lat="46.06436000" lon="1.302380000">
        <ele>395.00000</ele>
        <time>2019-01-18T10:21:03Z</time>
      </trkpt>
      <trkpt lat="46.06453000" lon="1.302890000">
        <ele>395.00000</ele>
        <time>2019-01-18T10:22:03Z</time>
      </trkpt>
      <trkpt lat="46.06469000" lon="1.303430000">
        <ele>394.00000</ele>
        <time>2019-01-18T10:23:03Z</time>
      </trkpt>
      <trkpt lat="46.06476000" lon="1.303920000">
        <ele>395.00000</ele>
        <time>2019-01-18T10:24:03Z</time>
      </trkpt>
      <trkpt lat="46.06474000" lon="1.305160000">
        <ele>397.00000</ele>
        <time>2019-01-18T10:25:03Z</time>
      </trkpt>
      <trkpt lat="46.06523000" lon="1.305560000">
        <ele>395.00000</ele>
        <time>2019-01-18T10:26:03Z</time>
      </trkpt>
      <trkpt lat="46.06559000" lon="1.306050000">
        <ele>395.00000</ele>
        <time>2019-01-18T10:27:03Z</time>
      </trkpt>
      <trkpt lat="46.06589000" lon="1.306500000">
        <ele>396.00000</ele>
        <time>2019-01-18T10:28:03Z</time>
      </trkpt>
      <trkpt lat="46.06621000" lon="1.306790000">
        <ele>400.00000</ele>
        <time>2019-01-18T10:29:03Z</time>
      </trkpt>
      <trkpt lat="46.06709000" lon="1.306460000">
        <ele>405.00000</ele>
        <time>2019-01-18T10:30:03Z</time>
      </trkpt>
      <trkpt lat="46.06771000" lon="1.306320000">
        <ele>407.00000</ele>
        <time>2019-01-18T10:31:03Z</time>
      </trkpt>
      <trkpt lat="46.06897000" lon="1.306960000">
        <ele>409.00000</ele>
        <time>2019-01-18T10:32:03Z</time>
      </trkpt>
      <trkpt lat="46.06971000" lon="1.307080000">
        <ele>410.00000</ele>
        <time>2019-01-18T10:33:03Z</time>
      </trkpt>
      <trkpt lat="46.07109000" lon="1.307150000">
        <ele>408.00000</ele>
        <time>2019-01-18T10:34:03Z</time>
      </trkpt>
      <trkpt lat="46.07250000" lon="1.306840000">
        <ele>407.00000</ele>
        <time>2019-01-18T10:35:03Z</time>
      </trkpt>
      <trkpt lat="46.07325000" lon="1.307180000">
        <ele>405.00000</ele>
        <time>2019-01-18T10:36:03Z</time>
      </trkpt>
      <trkpt lat="46.07501000" lon="1.307820000">
        <ele>403.00000</ele>
        <time>2019-01-18T10:37:03Z</time>
      </trkpt>
      <trkpt lat="46.07581000" lon="1.308170000">
        <ele>403.00000</ele>
        <time>2019-01-18T10:38:03Z</time>
      </trkpt>
      <trkpt lat="46.07617000" lon="1.308450000">
        <ele>401.00000</ele>
        <time>2019-01-18T10:39:03Z</time>
      </trkpt>
      <trkpt lat="46.07660000" lon="1.309140000">
        <ele>399.00000</ele>
        <time>2019-01-18T10:40:03Z</time>
      </trkpt>
      <trkpt lat="46.07670000" lon="1.309310000">
        <ele>398.00000</ele>
        <time>2019-01-18T10:41:03Z</time>
      </trkpt>
      <trkpt lat="46.07695000" lon="1.309410000">
        <ele>398.00000</ele>
        <time>2019-01-18T10:42:03Z</time>
      </trkpt>
      <trkpt lat="46.07720000" lon="1.309190000">
        <ele>398.00000</ele>
        <time>2019-01-18T10:43:03Z</time>
      </trkpt>
      <trkpt lat="46.07738000" lon="1.309360000">
        <ele>397.00000</ele>
        <time>2019-01-18T10:44:03Z</time>
      </trkpt>
      <trkpt lat="46.07744000" lon="1.309620000">
        <ele>397.00000</ele>
        <time>2019-01-18T10:45:03Z</time>
      </trkpt>
      <trkpt lat="46.07744000" lon="1.310200000">
        <ele>396.00000</ele>
        <time>2019-01-18T10:46:03Z</time>
      </trkpt>
      <trkpt lat="46.07728000" lon="1.310610000">
        <ele>393.00000</ele>
        <time>2019-01-18T10:47:03Z</time>
      </trkpt>
      <trkpt lat="46.07729000" lon="1.310870000">
        <ele>391.00000</ele>
        <time>2019-01-18T10:48:03Z</time>
      </trkpt>
      <trkpt lat="46.07723000" lon="1.311190000">
        <ele>390.00000</ele>
        <time>2019-01-18T10:49:03Z</time>
      </trkpt>
      <trkpt lat="46.07737000" lon="1.311620000">
        <ele>389.00000</ele>
        <time>2019-01-18T10:50:03Z</time>
      </trkpt>
      <trkpt lat="46.07746000" lon="1.312120000">
        <ele>390.00000</ele>
        <time>2019-01-18T10:51:03Z</time>
      </trkpt>
      <trkpt lat="46.07747000" lon="1.312780000">
        <ele>391.00000</ele>
        <time>2019-01-18T10:52:03Z</time>
      </trkpt>
      <trkpt lat="46.07789000" lon="1.312990000">
        <ele>393.00000</ele>
        <time>2019-01-18T10:53:03Z</time>
      </trkpt>
      <trkpt lat="46.07807000" lon="1.313490000">
        <ele>395.00000</ele>
        <time>2019-01-18T10:54:03Z</time>
      </trkpt>
      <trkpt lat="46.07844000" lon="1.314800000">
        <ele>399.00000</ele>
        <time>2019-01-18T10:55:03Z</time>
      </trkpt>
      <trkpt lat="46.07874000" lon="1.315080000">
        <ele>400.00000</ele>
        <time>2019-01-18T10:56:03Z</time>
      </trkpt>
      <trkpt lat="46.07904000" lon="1.315480000">
        <ele>401.00000</ele>
        <time>2019-01-18T10:57:03Z</time>
      </trkpt>
      <trkpt lat="46.07948000" lon="1.316410000">
        <ele>401.00000</ele>
        <time>2019-01-18T10:58:03Z</time>
      </trkpt>
      <trkpt lat="46.07978000" lon="1.316150000">
        <ele>401.00000</ele>
        <time>2019-01-18T10:59:03Z</time>
      </trkpt>
      <trkpt lat="46.08017000" lon="1.315680000">
        <ele>401.00000</ele>
        <time>2019-01-18T11:00:03Z</time>
      </trkpt>
      <trkpt lat="46.08046000" lon="1.315330000">
        <ele>402.00000</ele>
        <time>2019-01-18T11:01:03Z</time>
      </trkpt>
      <trkpt lat="46.08087000" lon="1.314840000">
        <ele>403.00000</ele>
        <time>2019-01-18T11:02:03Z</time>
      </trkpt>
      <trkpt lat="46.08093000" lon="1.314290000">
        <ele>403.00000</ele>
        <time>2019-01-18T11:03:03Z</time>
      </trkpt>
      <trkpt lat="46.08257000" lon="1.315390000">
        <ele>407.00000</ele>
        <time>2019-01-18T11:04:03Z</time>
      </trkpt>
      <trkpt lat="46.08408000" lon="1.316140000">
        <ele>396.00000</ele>
        <time>2019-01-18T11:05:03Z</time>
      </trkpt>
      <trkpt lat="46.08463000" lon="1.316490000">
        <ele>388.00000</ele>
        <time>2019-01-18T11:06:03Z</time>
      </trkpt>
      <trkpt lat="46.08484000" lon="1.317340000">
        <ele>382.00000</ele>
        <time>2019-01-18T11:07:03Z</time>
      </trkpt>
      <trkpt lat="46.08502000" lon="1.318960000">
        <ele>374.00000</ele>
        <time>2019-01-18T11:08:03Z</time>
      </trkpt>
      <trkpt lat="46.08562000" lon="1.320070000">
        <ele>365.00000</ele>
        <time>2019-01-18T11:09:03Z</time>
      </trkpt>
      <trkpt lat="46.08631000" lon="1.321060000">
        <ele>356.00000</ele>
        <time>2019-01-18T11:10:03Z</time>
      </trkpt>
      <trkpt lat="46.08694000" lon="1.322000000">
        <ele>348.00000</ele>
        <time>2019-01-18T11:11:03Z</time>
      </trkpt>
      <trkpt lat="46.08698000" lon="1.322700000">
        <ele>345.00000</ele>
        <time>2019-01-18T11:12:03Z</time>
      </trkpt>
      <trkpt lat="46.08750000" lon="1.323460000">
        <ele>342.00000</ele>
        <time>2019-01-18T11:13:03Z</time>
      </trkpt>
      <trkpt lat="46.08802000" lon="1.324560000">
        <ele>336.00000</ele>
        <time>2019-01-18T11:14:03Z</time>
      </trkpt>
      <trkpt lat="46.08830000" lon="1.325220000">
        <ele>334.00000</ele>
        <time>2019-01-18T11:15:03Z</time>
      </trkpt>
      <trkpt lat="46.08870000" lon="1.325490000">
        <ele>334.00000</ele>
        <time>2019-01-18T11:16:03Z</time>
      </trkpt>
      <trkpt lat="46.08931000" lon="1.325110000">
        <ele>334.00000</ele>
        <time>2019-01-18T11:17:03Z</time>
      </trkpt>
      <trkpt lat="46.08981000" lon="1.325080000">
        <ele>338.00000</ele>
        <time>2019-01-18T11:18:03Z</time>
      </trkpt>
      <trkpt lat="46.09047000" lon="1.325430000">
        <ele>345.00000</ele>
        <time>2019-01-18T11:19:03Z</time>
      </trkpt>
      <trkpt lat="46.09093000" lon="1.325850000">
        <ele>347.00000</ele>
        <time>2019-01-18T11:20:03Z</time>
      </trkpt>
      <trkpt lat="46.09119000" lon="1.326470000">
        <ele>346.00000</ele>
        <time>2019-01-18T11:21:03Z</time>
      </trkpt>
      <trkpt lat="46.09126000" lon="1.327030000">
        <ele>346.00000</ele>
        <time>2019-01-18T11:22:03Z</time>
      </trkpt>
      <trkpt lat="46.09146000" lon="1.327630000">
        <ele>345.00000</ele>
        <time>2019-01-18T11:23:03Z</time>
      </trkpt>
      <trkpt lat="46.09284000" lon="1.328880000">
        <ele>348.00000</ele>
        <time>2019-01-18T11:24:03Z</time>
      </trkpt>
      <trkpt lat="46.09477000" lon="1.330320000">
        <ele>352.00000</ele>
        <time>2019-01-18T11:25:03Z</time>
      </trkpt>
      <trkpt lat="46.09662000" lon="1.332010000">
        <ele>351.00000</ele>
        <time>2019-01-18T11:26:03Z</time>
      </trkpt>
      <trkpt lat="46.09627000" lon="1.332700000">
        <ele>355.00000</ele>
        <time>2019-01-18T11:27:03Z</time>
      </trkpt>
      <trkpt lat="46.09532000" lon="1.333490000">
        <ele>361.00000</ele>
        <time>2019-01-18T11:28:03Z</time>
      </trkpt>
      <trkpt lat="46.09422000" lon="1.334070000">
        <ele>367.00000</ele>
        <time>2019-01-18T11:29:03Z</time>
      </trkpt>
      <trkpt lat="46.09329000" lon="1.334970000">
        <ele>376.00000</ele>
        <time>2019-01-18T11:30:03Z</time>
      </trkpt>
      <trkpt lat="46.09299000" lon="1.335270000">
        <ele>377.00000</ele>
        <time>2019-01-18T11:31:03Z</time>
      </trkpt>
      <trkpt lat="46.09278000" lon="1.335760000">
        <ele>380.00000</ele>
        <time>2019-01-18T11:32:03Z</time>
      </trkpt>
      <trkpt lat="46.09265000" lon="1.336150000">
        <ele>384.00000</ele>
        <time>2019-01-18T11:33:03Z</time>
      </trkpt>
      <trkpt lat="46.09224000" lon="1.336360000">
        <ele>387.00000</ele>
        <time>2019-01-18T11:34:03Z</time>
      </trkpt>
      <trkpt lat="46.09135000" lon="1.336350000">
        <ele>389.00000</ele>
        <time>2019-01-18T11:35:03Z</time>
      </trkpt>
      <trkpt lat="46.09143000" lon="1.338520000">
        <ele>399.00000</ele>
        <time>2019-01-18T11:36:03Z</time>
      </trkpt>
      <trkpt lat="46.09120000" lon="1.338640000">
        <ele>399.00000</ele>
        <time>2019-01-18T11:37:03Z</time>
      </trkpt>
      <trkpt lat="46.09084000" lon="1.338800000">
        <ele>399.00000</ele>
        <time>2019-01-18T11:38:03Z</time>
      </trkpt>
      <trkpt lat="46.09056000" lon="1.339090000">
        <ele>398.00000</ele>
        <time>2019-01-18T11:39:03Z</time>
      </trkpt>
      <trkpt lat="46.09021000" lon="1.339530000">
        <ele>397.00000</ele>
        <time>2019-01-18T11:40:03Z</time>
      </trkpt>
      <trkpt lat="46.08984000" lon="1.340010000">
        <ele>395.00000</ele>
        <time>2019-01-18T11:41:03Z</time>
      </trkpt>
      <trkpt lat="46.09031000" lon="1.340360000">
        <ele>393.00000</ele>
        <time>2019-01-18T11:42:03Z</time>
      </trkpt>
      <trkpt lat="46.09070000" lon="1.340720000">
        <ele>392.00000</ele>
        <time>2019-01-18T11:43:03Z</time>
      </trkpt>
      <trkpt lat="46.09099000" lon="1.340930000">
        <ele>390.00000</ele>
        <time>2019-01-18T11:44:03Z</time>
      </trkpt>
      <trkpt lat="46.09160000" lon="1.341000000">
        <ele>390.00000</ele>
        <time>2019-01-18T11:45:03Z</time>
      </trkpt>
      <trkpt lat="46.09195000" lon="1.340910000">
        <ele>389.00000</ele>
        <time>2019-01-18T11:46:03Z</time>
      </trkpt>
      <trkpt lat="46.09223000" lon="1.341070000">
        <ele>386.00000</ele>
        <time>2019-01-18T11:47:03Z</time>
      </trkpt>
      <trkpt lat="46.09260000" lon="1.341500000">
        <ele>383.00000</ele>
        <time>2019-01-18T11:48:03Z</time>
      </trkpt>
      <trkpt lat="46.09322000" lon="1.341610000">
        <ele>381.00000</ele>
        <time>2019-01-18T11:49:03Z</time>
      </trkpt>
      <trkpt lat="46.09345000" lon="1.341630000">
        <ele>383.00000</ele>
        <time>2019-01-18T11:50:03Z</time>
      </trkpt>
      <trkpt lat="46.09367000" lon="1.341770000">
        <ele>384.00000</ele>
        <time>2019-01-18T11:51:03Z</time>
      </trkpt>
      <trkpt lat="46.09394000" lon="1.342060000">
        <ele>381.00000</ele>
        <time>2019-01-18T11:52:03Z</time>
      </trkpt>
      <trkpt lat="46.09424000" lon="1.342260000">
        <ele>379.00000</ele>
        <time>2019-01-18T11:53:03Z</time>
      </trkpt>
      <trkpt lat="46.09444000" lon="1.342380000">
        <ele>378.00000</ele>
        <time>2019-01-18T11:54:03Z</time>
      </trkpt>
      <trkpt lat="46.09494000" lon="1.342720000">
        <ele>381.00000</ele>
        <time>2019-01-18T11:55:03Z</time>
      </trkpt>
      <trkpt lat="46.09495000" lon="1.343020000">
        <ele>379.00000</ele>
        <time>2019-01-18T11:56:03Z</time>
      </trkpt>
      <trkpt lat="46.09483000" lon="1.343280000">
        <ele>377.00000</ele>
        <time>2019-01-18T11:57:03Z</time>
      </trkpt>
      <trkpt lat="46.09459000" lon="1.343460000">
        <ele>373.00000</ele>
        <time>2019-01-18T11:58:03Z</time>
      </trkpt>
      <trkpt lat="46.09444000" lon="1.343790000">
        <ele>372.00000</ele>
        <time>2019-01-18T11:59:03Z</time>
      </trkpt>
      <trkpt lat="46.09427000" lon="1.343960000">
        <ele>371.00000</ele>
        <time>2019-01-18T12:00:03Z</time>
      </trkpt>
      <trkpt lat="46.09420000" lon="1.344240000">
        <ele>370.00000</ele>
        <time>2019-01-18T12:01:03Z</time>
      </trkpt>
      <trkpt lat="46.09406000" lon="1.344950000">
        <ele>366.00000</ele>
        <time>2019-01-18T12:02:03Z</time>
      </trkpt>
      <trkpt lat="46.09421000" lon="1.345180000">
        <ele>366.00000</ele>
        <time>2019-01-18T12:03:03Z</time>
      </trkpt>
      <trkpt lat="46.09449000" lon="1.345670000">
        <ele>364.00000</ele>
        <time>2019-01-18T12:04:03Z</time>
      </trkpt>
      <trkpt lat="46.09479000" lon="1.346120000">
        <ele>362.00000</ele>
        <time>2019-01-18T12:05:03Z</time>
      </trkpt>
      <trkpt lat="46.09512000" lon="1.346440000">
        <ele>362.00000</ele>
        <time>2019-01-18T12:06:03Z</time>
      </trkpt>
      <trkpt lat="46.09530000" lon="1.346630000">
        <ele>361.00000</ele>
        <time>2019-01-18T12:07:03Z</time>
      </trkpt>
      <trkpt lat="46.09528000" lon="1.346840000">
        <ele>359.00000</ele>
        <time>2019-01-18T12:08:03Z</time>
      </trkpt>
      <trkpt lat="46.09505000" lon="1.346690000">
        <ele>358.00000</ele>
        <time>2019-01-18T12:09:03Z</time>
      </trkpt>
      <trkpt lat="46.09477000" lon="1.346700000">
        <ele>356.00000</ele>
        <time>2019-01-18T12:10:03Z</time>
      </trkpt>
      <trkpt lat="46.09462000" lon="1.346830000">
        <ele>353.00000</ele>
        <time>2019-01-18T12:11:03Z</time>
      </trkpt>
      <trkpt lat="46.09455000" lon="1.347140000">
        <ele>349.00000</ele>
        <time>2019-01-18T12:12:03Z</time>
      </trkpt>
      <trkpt lat="46.09448000" lon="1.347480000">
        <ele>345.00000</ele>
        <time>2019-01-18T12:13:03Z</time>
      </trkpt>
      <trkpt lat="46.09438000" lon="1.347850000">
        <ele>342.00000</ele>
        <time>2019-01-18T12:14:03Z</time>
      </trkpt>
      <trkpt lat="46.09425000" lon="1.348010000">
        <ele>340.00000</ele>
        <time>2019-01-18T12:15:03Z</time>
      </trkpt>
      <trkpt lat="46.09413000" lon="1.348190000">
        <ele>339.00000</ele>
        <time>2019-01-18T12:16:03Z</time>
      </trkpt>
      <trkpt lat="46.09402000" lon="1.348020000">
        <ele>339.00000</ele>
        <time>2019-01-18T12:17:03Z</time>
      </trkpt>
      <trkpt lat="46.09392000" lon="1.347700000">
        <ele>340.00000</ele>
        <time>2019-01-18T12:18:03Z</time>
      </trkpt>
      <trkpt lat="46.09385000" lon="1.347500000">
        <ele>341.00000</ele>
        <time>2019-01-18T12:19:03Z</time>
      </trkpt>
      <trkpt lat="46.09362000" lon="1.347470000">
        <ele>341.00000</ele>
        <time>2019-01-18T12:20:03Z</time>
      </trkpt>
      <trkpt lat="46.09325000" lon="1.347630000">
        <ele>339.00000</ele>
        <time>2019-01-18T12:21:03Z</time>
      </trkpt>
      <trkpt lat="46.09285000" lon="1.347630000">
        <ele>337.00000</ele>
        <time>2019-01-18T12:22:03Z</time>
      </trkpt>
      <trkpt lat="46.09261000" lon="1.347310000">
        <ele>338.00000</ele>
        <time>2019-01-18T12:23:03Z</time>
      </trkpt>
      <trkpt lat="46.09245000" lon="1.346960000">
        <ele>339.00000</ele>
        <time>2019-01-18T12:24:03Z</time>
      </trkpt>
      <trkpt lat="46.09228000" lon="1.346570000">
        <ele>340.00000</ele>
        <time>2019-01-18T12:25:03Z</time>
      </trkpt>
      <trkpt lat="46.09198000" lon="1.346430000">
        <ele>340.00000</ele>
        <time>2019-01-18T12:26:03Z</time>
      </trkpt>
      <trkpt lat="46.09164000" lon="1.346520000">
        <ele>338.00000</ele>
        <time>2019-01-18T12:27:03Z</time>
      </trkpt>
      <trkpt lat="46.09137000" lon="1.346770000">
        <ele>341.00000</ele>
        <time>2019-01-18T12:28:03Z</time>
      </trkpt>
      <trkpt lat="46.09143000" lon="1.347360000">
        <ele>342.00000</ele>
        <time>2019-01-18T12:29:03Z</time>
      </trkpt>
      <trkpt lat="46.09156000" lon="1.347770000">
        <ele>341.00000</ele>
        <time>2019-01-18T12:30:03Z</time>
      </trkpt>
      <trkpt lat="46.09183000" lon="1.348440000">
        <ele>342.00000</ele>
        <time>2019-01-18T12:31:03Z</time>
      </trkpt>
      <trkpt lat="46.09211000" lon="1.348940000">
        <ele>341.00000</ele>
        <time>2019-01-18T12:32:03Z</time>
      </trkpt>
      <trkpt lat="46.09252000" lon="1.349040000">
        <ele>338.00000</ele>
        <time>2019-01-18T12:33:03Z</time>
      </trkpt>
      <trkpt lat="46.09284000" lon="1.349460000">
        <ele>340.00000</ele>
        <time>2019-01-18T12:34:03Z</time>
      </trkpt>
      <trkpt lat="46.09296000" lon="1.349920000">
        <ele>344.00000</ele>
        <time>2019-01-18T12:35:03Z</time>
      </trkpt>
      <trkpt lat="46.09329000" lon="1.350200000">
        <ele>340.00000</ele>
        <time>2019-01-18T12:36:03Z</time>
      </trkpt>
      <trkpt lat="46.09365000" lon="1.350710000">
        <ele>340.00000</ele>
        <time>2019-01-18T12:37:03Z</time>
      </trkpt>
      <trkpt lat="46.09367000" lon="1.351080000">
        <ele>340.00000</ele>
        <time>2019-01-18T12:38:03Z</time>
      </trkpt>
      <trkpt lat="46.09391000" lon="1.351660000">
        <ele>338.00000</ele>
        <time>2019-01-18T12:39:03Z</time>
      </trkpt>
      <trkpt lat="46.09403000" lon="1.351790000">
        <ele>337.00000</ele>
        <time>2019-01-18T12:40:03Z</time>
      </trkpt>
      <trkpt lat="46.09416000" lon="1.351580000">
        <ele>336.00000</ele>
        <time>2019-01-18T12:41:03Z</time>
      </trkpt>
      <trkpt lat="46.09447000" lon="1.351360000">
        <ele>336.00000</ele>
        <time>2019-01-18T12:42:03Z</time>
      </trkpt>
      <trkpt lat="46.09532000" lon="1.351280000">
        <ele>336.00000</ele>
        <time>2019-01-18T12:43:03Z</time>
      </trkpt>
      <trkpt lat="46.09575000" lon="1.351360000">
        <ele>337.00000</ele>
        <time>2019-01-18T12:44:03Z</time>
      </trkpt>
      <trkpt lat="46.09653000" lon="1.351630000">
        <ele>339.00000</ele>
        <time>2019-01-18T12:45:03Z</time>
      </trkpt>
      <trkpt lat="46.09688000" lon="1.351790000">
        <ele>338.00000</ele>
        <time>2019-01-18T12:46:03Z</time>
      </trkpt>
      <trkpt lat="46.09708000" lon="1.352140000">
        <ele>337.00000</ele>
        <time>2019-01-18T12:47:03Z</time>
      </trkpt>
      <trkpt lat="46.09711000" lon="1.352790000">
        <ele>339.00000</ele>
        <time>2019-01-18T12:48:03Z</time>
      </trkpt>
      <trkpt lat="46.09727000" lon="1.352990000">
        <ele>340.00000</ele>
        <time>2019-01-18T12:49:03Z</time>
      </trkpt>
      <trkpt lat="46.09746000" lon="1.352810000">
        <ele>338.00000</ele>
        <time>2019-01-18T12:50:03Z</time>
      </trkpt>
      <trkpt lat="46.09766000" lon="1.352600000">
        <ele>336.00000</ele>
        <time>2019-01-18T12:51:03Z</time>
      </trkpt>
      <trkpt lat="46.09834000" lon="1.352490000">
        <ele>334.00000</ele>
        <time>2019-01-18T12:52:03Z</time>
      </trkpt>
      <trkpt lat="46.09868000" lon="1.352770000">
        <ele>336.00000</ele>
        <time>2019-01-18T12:53:03Z</time>
      </trkpt>
      <trkpt lat="46.09910000" lon="1.352970000">
        <ele>336.00000</ele>
        <time>2019-01-18T12:54:03Z</time>
      </trkpt>
      <trkpt lat="46.09960000" lon="1.352820000">
        <ele>336.00000</ele>
        <time>2019-01-18T12:55:03Z</time>
      </trkpt>
      <trkpt lat="46.09995000" lon="1.352710000">
        <ele>335.00000</ele>
        <time>2019-01-18T12:56:03Z</time>
      </trkpt>
      <trkpt lat="46.10025000" lon="1.352650000">
        <ele>334.00000</ele>
        <time>2019-01-18T12:57:03Z</time>
      </trkpt>
      <trkpt lat="46.10077000" lon="1.352820000">
        <ele>334.00000</ele>
        <time>2019-01-18T12:58:03Z</time>
      </trkpt>
      <trkpt lat="46.10063000" lon="1.353550000">
        <ele>337.00000</ele>
        <time>2019-01-18T12:59:03Z</time>
      </trkpt>
      <trkpt lat="46.10049000" lon="1.354070000">
        <ele>340.00000</ele>
        <time>2019-01-18T13:00:03Z</time>
      </trkpt>
      <trkpt lat="46.10039000" lon="1.354390000">
        <ele>342.00000</ele>
        <time>2019-01-18T13:01:03Z</time>
      </trkpt>
      <trkpt lat="46.10031000" lon="1.354510000">
        <ele>342.00000</ele>
        <time>2019-01-18T13:02:03Z</time>
      </trkpt>
      <trkpt lat="46.10028000" lon="1.354920000">
        <ele>345.00000</ele>
        <time>2019-01-18T13:03:03Z</time>
      </trkpt>
      <trkpt lat="46.10023000" lon="1.355550000">
        <ele>346.00000</ele>
        <time>2019-01-18T13:04:03Z</time>
      </trkpt>
      <trkpt lat="46.09984000" lon="1.355700000">
        <ele>347.00000</ele>
        <time>2019-01-18T13:05:03Z</time>
      </trkpt>
      <trkpt lat="46.09937000" lon="1.355910000">
        <ele>349.00000</ele>
        <time>2019-01-18T13:06:03Z</time>
      </trkpt>
      <trkpt lat="46.09893000" lon="1.356030000">
        <ele>350.00000</ele>
        <time>2019-01-18T13:07:03Z</time>
      </trkpt>
      <trkpt lat="46.09861000" lon="1.356340000">
        <ele>352.00000</ele>
        <time>2019-01-18T13:08:03Z</time>
      </trkpt>
      <trkpt lat="46.09811000" lon="1.356600000">
        <ele>354.00000</ele>
        <time>2019-01-18T13:09:03Z</time>
      </trkpt>
      <trkpt lat="46.09764000" lon="1.356600000">
        <ele>358.00000</ele>
        <time>2019-01-18T13:10:03Z</time>
      </trkpt>
      <trkpt lat="46.09716000" lon="1.356450000">
        <ele>359.00000</ele>
        <time>2019-01-18T13:11:03Z</time>
      </trkpt>
      <trkpt lat="46.09660000" lon="1.356060000">
        <ele>358.00000</ele>
        <time>2019-01-18T13:12:03Z</time>
      </trkpt>
      <trkpt lat="46.09570000" lon="1.355780000">
        <ele>361.00000</ele>
        <time>2019-01-18T13:13:03Z</time>
      </trkpt>
      <trkpt lat="46.09547000" lon="1.355590000">
        <ele>361.00000</ele>
        <time>2019-01-18T13:14:03Z</time>
      </trkpt>
      <trkpt lat="46.09522000" lon="1.356380000">
        <ele>370.00000</ele>
        <time>2019-01-18T13:15:03Z</time>
      </trkpt>
      <trkpt lat="46.09411000" lon="1.355780000">
        <ele>367.00000</ele>
        <time>2019-01-18T13:16:03Z</time>
      </trkpt>
      <trkpt lat="46.09387000" lon="1.356540000">
        <ele>374.00000</ele>
        <time>2019-01-18T13:17:03Z</time>
      </trkpt>
      <trkpt lat="46.09266000" lon="1.357660000">
        <ele>391.00000</ele>
        <time>2019-01-18T13:18:03Z</time>
      </trkpt>
      <trkpt lat="46.09313000" lon="1.358230000">
        <ele>391.00000</ele>
        <time>2019-01-18T13:19:03Z</time>
      </trkpt>
      <trkpt lat="46.09307000" lon="1.359760000">
        <ele>399.00000</ele>
        <time>2019-01-18T13:20:03Z</time>
      </trkpt>
      <trkpt lat="46.09032000" lon="1.360810000">
        <ele>414.00000</ele>
        <time>2019-01-18T13:21:03Z</time>
      </trkpt>
      <trkpt lat="46.08948000" lon="1.361470000">
        <ele>409.00000</ele>
        <time>2019-01-18T13:22:03Z</time>
      </trkpt>
      <trkpt lat="46.08904000" lon="1.362310000">
        <ele>405.00000</ele>
        <time>2019-01-18T13:23:03Z</time>
      </trkpt>
      <trkpt lat="46.08868000" lon="1.362700000">
        <ele>406.00000</ele>
        <time>2019-01-18T13:24:03Z</time>
      </trkpt>
      <trkpt lat="46.08876000" lon="1.362960000">
        <ele>406.00000</ele>
        <time>2019-01-18T13:25:03Z</time>
      </trkpt>
      <trkpt lat="46.08815000" lon="1.363200000">
        <ele>410.00000</ele>
        <time>2019-01-18T13:26:03Z</time>
      </trkpt>
      <trkpt lat="46.08780000" lon="1.363310000">
        <ele>413.00000</ele>
        <time>2019-01-18T13:27:03Z</time>
      </trkpt>
      <trkpt lat="46.08732000" lon="1.363110000">
        <ele>416.00000</ele>
        <time>2019-01-18T13:28:03Z</time>
      </trkpt>
      <trkpt lat="46.08703000" lon="1.363320000">
        <ele>419.00000</ele>
        <time>2019-01-18T13:29:03Z</time>
      </trkpt>
      <trkpt lat="46.08600000" lon="1.364600000">
        <ele>436.00000</ele>
        <time>2019-01-18T13:30:03Z</time>
      </trkpt>
      <trkpt lat="46.08455000" lon="1.366860000">
        <ele>450.00000</ele>
        <time>2019-01-18T13:31:03Z</time>
      </trkpt>
      <trkpt lat="46.08372000" lon="1.368270000">
        <ele>460.00000</ele>
        <time>2019-01-18T13:32:03Z</time>
      </trkpt>
      <trkpt lat="46.08318000" lon="1.368950000">
        <ele>463.00000</ele>
        <time>2019-01-18T13:33:03Z</time>
      </trkpt>
      <trkpt lat="46.08294000" lon="1.369420000">
        <ele>462.00000</ele>
        <time>2019-01-18T13:34:03Z</time>
      </trkpt>
      <trkpt lat="46.08266000" lon="1.370350000">
        <ele>459.00000</ele>
        <time>2019-01-18T13:35:03Z</time>
      </trkpt>
      <trkpt lat="46.08220000" lon="1.371180000">
        <ele>464.00000</ele>
        <time>2019-01-18T13:36:03Z</time>
      </trkpt>
      <trkpt lat="46.08183000" lon="1.371620000">
        <ele>473.00000</ele>
        <time>2019-01-18T13:37:03Z</time>
      </trkpt>
      <trkpt lat="46.08138000" lon="1.372080000">
        <ele>476.00000</ele>
        <time>2019-01-18T13:38:03Z</time>
      </trkpt>
      <trkpt lat="46.08111000" lon="1.372400000">
        <ele>477.00000</ele>
        <time>2019-01-18T13:39:03Z</time>
      </trkpt>
      <trkpt lat="46.08080000" lon="1.373100000">
        <ele>480.00000</ele>
        <time>2019-01-18T13:40:03Z</time>
      </trkpt>


Partager le fichier

Télécharger StPardoux2019 45.gpx

Télécharger le fichier (115 Ko)